Main page
METAR-TAF:

METAR-TAF

Airports :

Deauville – Normandie Airport

Deauville, France

latitude: 49-21-55N, longitude: 000-09-16E, elevation: 146 m

Current weather observation

The report was made 27 minutes ago, at 01:30 UTC
Wind 5 kt from the East/Northeast, varying between North/Northeast and East
Temperature 2°C
Humidity 69%
Pressure 1019 hPa
Visibility 10 km or more
no clouds below 1500 m and no cumulonimbus

METAR: LFRG 190130Z AUTO 06005KT 020V100 CAVOK 02/M03 Q1019

Time: 02:57 (01:57 UTC)

Forecast

The report was made 11 hours and 57 minutes ago, at 14:00 UTC
Forecast valid from 18 at 15 UTC to 18 at 24 UTC
Wind 10 kt from the East
Visibility 10 km or more
no clouds below 1500 m and no cumulonimbus
Probability 30% :
Temporary
from 18 at 15 UTC to 18 at 20 UTC
Wind 15 kt from the East with gusts up to 25 kt

TAF: LFRG 181400Z 1815/1824 08010KT CAVOK PROB30 TEMPO 1815/1820 08015G25KT

Weather observations and forecasts of more than 4000 airports (METAR and TAF reports).

The available stations are represented by yellow and red dots on the map.

Hover mouse over dot to see the name of the station.

Then click to see weather observations and forecasts.

To change the map : click on the green buttons with a black cross to zoom in, on the green button with a dash to zoom out, or on the green arrows for adjacent maps.


METAR-TAF: